SKW1229 KRNO-KLAX
Flight info
| Callsign | SKW1229 |
|---|---|
| Flight time | N/A |
| Altitude | 31000 |
| Route | ZEFFR9 DARBI FRA REBRG IRNMN2 |
| Aircraft | CRJ7/M-SDFGIRWY/S |
Departure
| Time | 2026-05-05 01:01 |
|---|---|
| Airport | Reno Tahoe International Airport (KRNO) |
Arrival
| Time | N/A |
|---|---|
| Airport | Los Angeles International Airport (KLAX) |
| Time | Latitude | Longitude | Altitude | Speed | Heading |
|---|---|---|---|---|---|
| 2026-05-05 00:41 | 39.50687 | -119.77211 | 4409 ft | 0 kts | 281° |
| 2026-05-05 00:53 | 39.50685 | -119.77197 | 4409 ft | 2 kts | 283° |
| 2026-05-05 00:54 | 39.50680 | -119.77176 | 4409 ft | 2 kts | 290° |
| 2026-05-05 00:54 | 39.50672 | -119.77158 | 4410 ft | 2 kts | 317° |
| 2026-05-05 00:54 | 39.50659 | -119.77151 | 4410 ft | 1 kts | 358° |
| 2026-05-05 00:54 | 39.50657 | -119.77151 | 4410 ft | 0 kts | 360° |
| 2026-05-05 00:56 | 39.50662 | -119.77151 | 4410 ft | 3 kts | 360° |
| 2026-05-05 00:56 | 39.50716 | -119.77151 | 4409 ft | 13 kts | 0° |
| 2026-05-05 00:56 | 39.50836 | -119.77150 | 4407 ft | 19 kts | 0° |
| 2026-05-05 00:56 | 39.50952 | -119.77151 | 4408 ft | 15 kts | 0° |
| 2026-05-05 00:57 | 39.51053 | -119.77150 | 4410 ft | 14 kts | 0° |
| 2026-05-05 00:57 | 39.51157 | -119.77149 | 4408 ft | 16 kts | 0° |
| 2026-05-05 00:57 | 39.51271 | -119.77149 | 4408 ft | 16 kts | 0° |
| 2026-05-05 00:57 | 39.51349 | -119.77142 | 4410 ft | 9 kts | 23° |
| 2026-05-05 00:58 | 39.51374 | -119.77080 | 4410 ft | 9 kts | 89° |
| 2026-05-05 00:58 | 39.51375 | -119.77061 | 4410 ft | 3 kts | 89° |
| 2026-05-05 00:58 | 39.51375 | -119.77046 | 4409 ft | 0 kts | 90° |
| 2026-05-05 00:59 | 39.51375 | -119.77040 | 4409 ft | 4 kts | 90° |
| 2026-05-05 00:59 | 39.51372 | -119.76961 | 4408 ft | 11 kts | 105° |
| 2026-05-05 01:00 | 39.51313 | -119.76924 | 4410 ft | 10 kts | 179° |
| 2026-05-05 01:00 | 39.51146 | -119.76923 | 4411 ft | 53 kts | 179° |
| 2026-05-05 01:00 | 39.50532 | -119.76924 | 4407 ft | 121 kts | 180° |
| 2026-05-05 01:00 | 39.49530 | -119.76937 | 4621 ft | 154 kts | 183° |
| 2026-05-05 01:01 | 39.48454 | -119.77014 | 5420 ft | 159 kts | 187° |
| 2026-05-05 01:01 | 39.47250 | -119.77090 | 5750 ft | 191 kts | 186° |
| 2026-05-05 01:01 | 39.45790 | -119.77064 | 5987 ft | 230 kts | 181° |
| 2026-05-05 01:01 | 39.44110 | -119.77022 | 6562 ft | 255 kts | 183° |
| 2026-05-05 01:02 | 39.42276 | -119.77008 | 7369 ft | 272 kts | 182° |
| 2026-05-05 01:02 | 39.40329 | -119.76994 | 8195 ft | 286 kts | 180° |
| 2026-05-05 01:02 | 39.38320 | -119.77005 | 9228 ft | 291 kts | 179° |
| 2026-05-05 01:02 | 39.36280 | -119.77009 | 10268 ft | 295 kts | 178° |
| 2026-05-05 01:03 | 39.34245 | -119.77012 | 11178 ft | 301 kts | 177° |
| 2026-05-05 01:03 | 39.32155 | -119.77005 | 12034 ft | 310 kts | 176° |
| 2026-05-05 01:03 | 39.29926 | -119.76937 | 12547 ft | 330 kts | 174° |
| 2026-05-05 01:03 | 39.27575 | -119.76841 | 13124 ft | 347 kts | 174° |
| 2026-05-05 01:04 | 39.25114 | -119.76741 | 13774 ft | 360 kts | 174° |
| 2026-05-05 01:04 | 39.20054 | -119.76546 | 15457 ft | 364 kts | 174° |